sensor_id;sensor_type;location;lat;lon;timestamp;P1;durP1;ratioP1;P2;durP2;ratioP2
75050;SDS011;63628;47.656;11.310;2023-02-15T00:01:06;7.13;;;3.23;;
75050;SDS011;63628;47.656;11.310;2023-02-15T00:03:33;7.47;;;3.73;;
75050;SDS011;63628;47.656;11.310;2023-02-15T00:05:59;5.83;;;3.50;;
75050;SDS011;63628;47.656;11.310;2023-02-15T00:08:26;5.70;;;3.47;;
75050;SDS011;63628;47.656;11.310;2023-02-15T00:11:02;5.90;;;3.87;;
75050;SDS011;63628;47.656;11.310;2023-02-15T00:13:29;4.93;;;2.97;;
75050;SDS011;63628;47.656;11.310;2023-02-15T00:15:59;5.87;;;3.60;;
75050;SDS011;63628;47.656;11.310;2023-02-15T00:18:28;5.97;;;3.37;;
75050;SDS011;63628;47.656;11.310;2023-02-15T00:20:55;5.30;;;3.20;;
75050;SDS011;63628;47.656;11.310;2023-02-15T00:23:21;5.37;;;3.00;;
75050;SDS011;63628;47.656;11.310;2023-02-15T00:25:48;5.40;;;3.20;;
75050;SDS011;63628;47.656;11.310;2023-02-15T00:28:16;4.77;;;3.23;;
75050;SDS011;63628;47.656;11.310;2023-02-15T00:30:42;6.10;;;4.17;;
75050;SDS011;63628;47.656;11.310;2023-02-15T00:33:09;6.27;;;3.60;;
75050;SDS011;63628;47.656;11.310;2023-02-15T00:35:37;5.47;;;3.50;;
75050;SDS011;63628;47.656;11.310;2023-02-15T00:38:03;5.43;;;2.93;;
75050;SDS011;63628;47.656;11.310;2023-02-15T00:40:30;6.07;;;3.27;;
75050;SDS011;63628;47.656;11.310;2023-02-15T00:42:56;5.97;;;4.07;;
75050;SDS011;63628;47.656;11.310;2023-02-15T00:45:24;5.50;;;3.33;;
75050;SDS011;63628;47.656;11.310;2023-02-15T00:47:51;4.90;;;2.87;;
75050;SDS011;63628;47.656;11.310;2023-02-15T00:50:17;5.67;;;3.50;;
75050;SDS011;63628;47.656;11.310;2023-02-15T00:52:45;5.90;;;3.37;;
75050;SDS011;63628;47.656;11.310;2023-02-15T00:55:12;4.67;;;3.00;;
75050;SDS011;63628;47.656;11.310;2023-02-15T00:57:38;6.53;;;3.40;;
75050;SDS011;63628;47.656;11.310;2023-02-15T01:00:05;5.23;;;3.30;;
75050;SDS011;63628;47.656;11.310;2023-02-15T01:02:33;5.07;;;3.10;;
75050;SDS011;63628;47.656;11.310;2023-02-15T01:04:59;4.90;;;3.07;;
75050;SDS011;63628;47.656;11.310;2023-02-15T01:07:26;5.50;;;3.50;;
75050;SDS011;63628;47.656;11.310;2023-02-15T01:09:54;4.80;;;3.50;;
75050;SDS011;63628;47.656;11.310;2023-02-15T01:12:20;4.97;;;3.40;;
75050;SDS011;63628;47.656;11.310;2023-02-15T01:14:47;5.73;;;3.30;;
75050;SDS011;63628;47.656;11.310;2023-02-15T01:17:13;4.43;;;3.23;;
75050;SDS011;63628;47.656;11.310;2023-02-15T01:19:40;4.93;;;3.37;;
75050;SDS011;63628;47.656;11.310;2023-02-15T01:22:07;6.27;;;3.67;;
75050;SDS011;63628;47.656;11.310;2023-02-15T01:24:33;4.87;;;3.27;;
75050;SDS011;63628;47.656;11.310;2023-02-15T01:27:01;7.77;;;4.83;;
75050;SDS011;63628;47.656;11.310;2023-02-15T01:29:28;4.90;;;3.20;;
75050;SDS011;63628;47.656;11.310;2023-02-15T01:31:54;4.10;;;3.03;;
75050;SDS011;63628;47.656;11.310;2023-02-15T01:34:21;7.30;;;4.07;;
75050;SDS011;63628;47.656;11.310;2023-02-15T01:36:47;8.37;;;3.40;;
75050;SDS011;63628;47.656;11.310;2023-02-15T01:39:14;6.17;;;3.60;;
75050;SDS011;63628;47.656;11.310;2023-02-15T01:41:41;6.77;;;4.07;;
75050;SDS011;63628;47.656;11.310;2023-02-15T01:47:27;17.33;;;7.23;;
75050;SDS011;63628;47.656;11.310;2023-02-15T01:49:59;7.80;;;4.50;;
75050;SDS011;63628;47.656;11.310;2023-02-15T01:52:29;5.33;;;3.70;;
75050;SDS011;63628;47.656;11.310;2023-02-15T01:54:56;5.97;;;3.40;;
75050;SDS011;63628;47.656;11.310;2023-02-15T01:57:23;6.97;;;3.50;;
75050;SDS011;63628;47.656;11.310;2023-02-15T01:59:53;6.67;;;4.40;;
75050;SDS011;63628;47.656;11.310;2023-02-15T02:02:24;7.50;;;3.90;;
75050;SDS011;63628;47.656;11.310;2023-02-15T02:04:53;5.57;;;3.67;;
75050;SDS011;63628;47.656;11.310;2023-02-15T02:07:24;8.53;;;4.10;;
75050;SDS011;63628;47.656;11.310;2023-02-15T02:09:54;6.83;;;3.73;;
75050;SDS011;63628;47.656;11.310;2023-02-15T02:12:21;7.93;;;4.20;;
75050;SDS011;63628;47.656;11.310;2023-02-15T02:14:49;8.53;;;4.40;;
75050;SDS011;63628;47.656;11.310;2023-02-15T02:17:18;8.30;;;4.87;;
75050;SDS011;63628;47.656;11.310;2023-02-15T02:20:01;5.63;;;3.63;;
75050;SDS011;63628;47.656;11.310;2023-02-15T02:23:02;7.07;;;3.93;;
75050;SDS011;63628;47.656;11.310;2023-02-15T02:26:03;7.17;;;4.10;;
75050;SDS011;63628;47.656;11.310;2023-02-15T02:29:23;8.37;;;4.20;;
75050;SDS011;63628;47.656;11.310;2023-02-15T02:32:16;8.20;;;3.97;;
75050;SDS011;63628;47.656;11.310;2023-02-15T02:35:06;7.70;;;4.30;;
75050;SDS011;63628;47.656;11.310;2023-02-15T02:37:41;8.63;;;4.90;;
75050;SDS011;63628;47.656;11.310;2023-02-15T02:40:15;9.07;;;5.30;;
75050;SDS011;63628;47.656;11.310;2023-02-15T02:42:48;8.97;;;4.60;;
75050;SDS011;63628;47.656;11.310;2023-02-15T02:45:22;8.97;;;5.40;;
75050;SDS011;63628;47.656;11.310;2023-02-15T02:47:54;8.70;;;5.17;;
75050;SDS011;63628;47.656;11.310;2023-02-15T02:50:27;8.53;;;4.80;;
75050;SDS011;63628;47.656;11.310;2023-02-15T02:52:56;9.13;;;4.50;;
75050;SDS011;63628;47.656;11.310;2023-02-15T02:55:25;8.27;;;4.78;;
75050;SDS011;63628;47.656;11.310;2023-02-15T02:57:57;7.93;;;4.77;;
75050;SDS011;63628;47.656;11.310;2023-02-15T03:00:29;8.93;;;5.37;;
75050;SDS011;63628;47.656;11.310;2023-02-15T03:03:03;8.63;;;4.43;;
75050;SDS011;63628;47.656;11.310;2023-02-15T03:05:37;8.43;;;4.50;;
75050;SDS011;63628;47.656;11.310;2023-02-15T03:08:06;9.57;;;5.23;;
75050;SDS011;63628;47.656;11.310;2023-02-15T03:10:36;14.20;;;7.07;;
75050;SDS011;63628;47.656;11.310;2023-02-15T03:13:05;9.80;;;5.72;;
75050;SDS011;63628;47.656;11.310;2023-02-15T03:15:33;8.97;;;4.90;;
75050;SDS011;63628;47.656;11.310;2023-02-15T03:18:22;21.65;;;6.78;;
75050;SDS011;63628;47.656;11.310;2023-02-15T03:20:52;8.30;;;4.83;;
75050;SDS011;63628;47.656;11.310;2023-02-15T03:23:21;7.43;;;4.63;;
75050;SDS011;63628;47.656;11.310;2023-02-15T03:25:52;10.33;;;5.30;;
75050;SDS011;63628;47.656;11.310;2023-02-15T03:28:25;10.33;;;5.63;;
75050;SDS011;63628;47.656;11.310;2023-02-15T03:30:58;11.90;;;5.93;;
75050;SDS011;63628;47.656;11.310;2023-02-15T03:33:29;8.40;;;5.30;;
75050;SDS011;63628;47.656;11.310;2023-02-15T03:35:59;7.00;;;4.10;;
75050;SDS011;63628;47.656;11.310;2023-02-15T03:38:33;8.30;;;4.87;;
75050;SDS011;63628;47.656;11.310;2023-02-15T03:41:03;10.00;;;6.00;;
75050;SDS011;63628;47.656;11.310;2023-02-15T03:43:37;7.73;;;4.80;;
75050;SDS011;63628;47.656;11.310;2023-02-15T03:46:12;8.13;;;4.67;;
75050;SDS011;63628;47.656;11.310;2023-02-15T03:48:44;8.60;;;4.73;;
75050;SDS011;63628;47.656;11.310;2023-02-15T03:51:18;8.17;;;4.87;;
75050;SDS011;63628;47.656;11.310;2023-02-15T03:54:00;7.87;;;5.23;;
75050;SDS011;63628;47.656;11.310;2023-02-15T03:56:29;7.22;;;4.88;;
75050;SDS011;63628;47.656;11.310;2023-02-15T03:58:56;8.23;;;6.23;;
75050;SDS011;63628;47.656;11.310;2023-02-15T04:01:43;8.17;;;5.10;;
75050;SDS011;63628;47.656;11.310;2023-02-15T04:04:32;8.93;;;6.40;;
75050;SDS011;63628;47.656;11.310;2023-02-15T04:07:03;8.87;;;5.07;;
75050;SDS011;63628;47.656;11.310;2023-02-15T04:09:31;7.03;;;4.83;;
75050;SDS011;63628;47.656;11.310;2023-02-15T04:12:16;6.87;;;4.90;;
75050;SDS011;63628;47.656;11.310;2023-02-15T04:14:43;10.17;;;5.30;;
75050;SDS011;63628;47.656;11.310;2023-02-15T04:17:28;8.37;;;5.03;;
75050;SDS011;63628;47.656;11.310;2023-02-15T04:19:55;7.57;;;4.97;;
75050;SDS011;63628;47.656;11.310;2023-02-15T04:22:42;8.33;;;5.60;;
75050;SDS011;63628;47.656;11.310;2023-02-15T04:25:27;6.50;;;4.33;;
75050;SDS011;63628;47.656;11.310;2023-02-15T04:27:54;7.37;;;4.53;;
75050;SDS011;63628;47.656;11.310;2023-02-15T04:30:22;7.67;;;4.63;;
75050;SDS011;63628;47.656;11.310;2023-02-15T04:32:50;6.88;;;4.38;;
75050;SDS011;63628;47.656;11.310;2023-02-15T04:35:17;7.17;;;4.90;;
75050;SDS011;63628;47.656;11.310;2023-02-15T04:37:45;7.03;;;4.60;;
75050;SDS011;63628;47.656;11.310;2023-02-15T04:40:12;7.57;;;5.07;;
75050;SDS011;63628;47.656;11.310;2023-02-15T04:42:43;8.07;;;5.30;;
75050;SDS011;63628;47.656;11.310;2023-02-15T04:45:09;7.83;;;5.30;;
75050;SDS011;63628;47.656;11.310;2023-02-15T04:47:36;6.10;;;4.47;;
75050;SDS011;63628;47.656;11.310;2023-02-15T04:50:03;7.87;;;4.80;;
75050;SDS011;63628;47.656;11.310;2023-02-15T04:52:30;9.30;;;5.37;;
75050;SDS011;63628;47.656;11.310;2023-02-15T04:54:58;7.77;;;5.17;;
75050;SDS011;63628;47.656;11.310;2023-02-15T04:57:24;7.53;;;5.00;;
75050;SDS011;63628;47.656;11.310;2023-02-15T04:59:51;6.43;;;4.27;;
75050;SDS011;63628;47.656;11.310;2023-02-15T05:02:18;7.43;;;4.80;;
75050;SDS011;63628;47.656;11.310;2023-02-15T05:04:44;7.43;;;4.70;;
75050;SDS011;63628;47.656;11.310;2023-02-15T05:07:11;8.53;;;5.40;;
75050;SDS011;63628;47.656;11.310;2023-02-15T05:09:37;7.40;;;4.90;;
75050;SDS011;63628;47.656;11.310;2023-02-15T05:12:05;6.30;;;4.50;;
75050;SDS011;63628;47.656;11.310;2023-02-15T05:14:32;6.23;;;4.70;;
75050;SDS011;63628;47.656;11.310;2023-02-15T05:16:59;7.73;;;4.83;;
75050;SDS011;63628;47.656;11.310;2023-02-15T05:19:27;6.87;;;4.53;;
75050;SDS011;63628;47.656;11.310;2023-02-15T05:21:54;6.70;;;4.70;;
75050;SDS011;63628;47.656;11.310;2023-02-15T05:24:20;7.87;;;5.47;;
75050;SDS011;63628;47.656;11.310;2023-02-15T05:27:07;7.43;;;5.30;;
75050;SDS011;63628;47.656;11.310;2023-02-15T05:30:09;7.57;;;5.20;;
75050;SDS011;63628;47.656;11.310;2023-02-15T05:32:38;7.57;;;5.03;;
75050;SDS011;63628;47.656;11.310;2023-02-15T05:35:05;7.30;;;4.63;;
75050;SDS011;63628;47.656;11.310;2023-02-15T05:37:32;6.70;;;5.10;;
75050;SDS011;63628;47.656;11.310;2023-02-15T05:39:59;7.43;;;4.77;;
75050;SDS011;63628;47.656;11.310;2023-02-15T05:42:27;6.67;;;4.63;;
75050;SDS011;63628;47.656;11.310;2023-02-15T05:44:53;6.03;;;4.30;;
75050;SDS011;63628;47.656;11.310;2023-02-15T05:47:20;6.43;;;4.63;;
75050;SDS011;63628;47.656;11.310;2023-02-15T05:49:46;6.87;;;4.73;;
75050;SDS011;63628;47.656;11.310;2023-02-15T05:52:13;7.60;;;5.07;;
75050;SDS011;63628;47.656;11.310;2023-02-15T05:54:39;7.40;;;5.20;;
75050;SDS011;63628;47.656;11.310;2023-02-15T05:57:06;8.07;;;4.73;;
75050;SDS011;63628;47.656;11.310;2023-02-15T05:59:34;6.20;;;4.93;;
75050;SDS011;63628;47.656;11.310;2023-02-15T06:02:00;7.00;;;4.83;;
75050;SDS011;63628;47.656;11.310;2023-02-15T06:04:27;8.13;;;5.23;;
75050;SDS011;63628;47.656;11.310;2023-02-15T06:06:54;8.47;;;5.77;;
75050;SDS011;63628;47.656;11.310;2023-02-15T06:09:20;7.63;;;4.93;;
75050;SDS011;63628;47.656;11.310;2023-02-15T06:11:47;6.93;;;4.80;;
75050;SDS011;63628;47.656;11.310;2023-02-15T06:14:13;6.43;;;4.40;;
75050;SDS011;63628;47.656;11.310;2023-02-15T06:16:41;6.43;;;4.80;;
75050;SDS011;63628;47.656;11.310;2023-02-15T06:19:08;8.53;;;5.13;;
75050;SDS011;63628;47.656;11.310;2023-02-15T06:21:35;7.30;;;4.83;;
75050;SDS011;63628;47.656;11.310;2023-02-15T06:24:01;7.43;;;4.80;;
75050;SDS011;63628;47.656;11.310;2023-02-15T06:26:28;8.53;;;5.47;;
75050;SDS011;63628;47.656;11.310;2023-02-15T06:28:54;6.30;;;4.77;;
75050;SDS011;63628;47.656;11.310;2023-02-15T06:31:21;7.60;;;5.20;;
75050;SDS011;63628;47.656;11.310;2023-02-15T06:33:49;7.97;;;5.27;;
75050;SDS011;63628;47.656;11.310;2023-02-15T06:36:16;5.93;;;4.33;;
75050;SDS011;63628;47.656;11.310;2023-02-15T06:38:42;6.90;;;4.73;;
75050;SDS011;63628;47.656;11.310;2023-02-15T06:41:09;6.53;;;5.27;;
75050;SDS011;63628;47.656;11.310;2023-02-15T06:43:35;9.70;;;7.03;;
75050;SDS011;63628;47.656;11.310;2023-02-15T06:46:03;7.20;;;5.03;;
75050;SDS011;63628;47.656;11.310;2023-02-15T06:48:30;8.17;;;4.67;;
75050;SDS011;63628;47.656;11.310;2023-02-15T06:50:58;5.80;;;4.60;;
75050;SDS011;63628;47.656;11.310;2023-02-15T06:53:25;6.77;;;5.07;;
75050;SDS011;63628;47.656;11.310;2023-02-15T06:55:51;7.13;;;4.63;;
75050;SDS011;63628;47.656;11.310;2023-02-15T06:58:18;8.40;;;5.07;;
75050;SDS011;63628;47.656;11.310;2023-02-15T07:00:45;9.23;;;5.90;;
75050;SDS011;63628;47.656;11.310;2023-02-15T07:03:12;7.00;;;5.27;;
75050;SDS011;63628;47.656;11.310;2023-02-15T07:05:40;6.60;;;5.10;;
75050;SDS011;63628;47.656;11.310;2023-02-15T07:08:08;7.83;;;5.37;;
75050;SDS011;63628;47.656;11.310;2023-02-15T07:10:35;6.47;;;4.67;;
75050;SDS011;63628;47.656;11.310;2023-02-15T07:13:01;7.00;;;4.93;;
75050;SDS011;63628;47.656;11.310;2023-02-15T07:15:28;9.40;;;6.77;;
75050;SDS011;63628;47.656;11.310;2023-02-15T07:17:56;7.53;;;4.83;;
75050;SDS011;63628;47.656;11.310;2023-02-15T07:20:24;7.60;;;5.90;;
75050;SDS011;63628;47.656;11.310;2023-02-15T07:22:51;6.97;;;5.67;;
75050;SDS011;63628;47.656;11.310;2023-02-15T07:25:19;7.23;;;5.23;;
75050;SDS011;63628;47.656;11.310;2023-02-15T07:27:46;7.67;;;5.10;;
75050;SDS011;63628;47.656;11.310;2023-02-15T07:30:13;11.20;;;8.27;;
75050;SDS011;63628;47.656;11.310;2023-02-15T07:32:42;9.18;;;5.45;;
75050;SDS011;63628;47.656;11.310;2023-02-15T07:35:30;7.33;;;5.20;;
75050;SDS011;63628;47.656;11.310;2023-02-15T07:37:57;15.43;;;9.63;;
75050;SDS011;63628;47.656;11.310;2023-02-15T07:40:28;9.93;;;7.03;;
75050;SDS011;63628;47.656;11.310;2023-02-15T07:42:57;12.93;;;10.07;;
75050;SDS011;63628;47.656;11.310;2023-02-15T07:45:25;15.30;;;10.50;;
75050;SDS011;63628;47.656;11.310;2023-02-15T07:47:51;16.43;;;11.87;;
75050;SDS011;63628;47.656;11.310;2023-02-15T07:50:18;15.83;;;10.73;;
75050;SDS011;63628;47.656;11.310;2023-02-15T07:52:44;8.67;;;5.97;;
75050;SDS011;63628;47.656;11.310;2023-02-15T07:55:11;24.73;;;14.67;;
75050;SDS011;63628;47.656;11.310;2023-02-15T07:57:42;16.40;;;11.10;;
75050;SDS011;63628;47.656;11.310;2023-02-15T08:00:10;23.33;;;14.00;;
75050;SDS011;63628;47.656;11.310;2023-02-15T08:02:39;7.75;;;5.80;;
75050;SDS011;63628;47.656;11.310;2023-02-15T08:05:06;8.70;;;5.60;;
75050;SDS011;63628;47.656;11.310;2023-02-15T08:07:32;8.40;;;5.83;;
75050;SDS011;63628;47.656;11.310;2023-02-15T08:09:59;14.90;;;9.97;;
75050;SDS011;63628;47.656;11.310;2023-02-15T08:12:26;10.23;;;6.90;;
75050;SDS011;63628;47.656;11.310;2023-02-15T08:14:54;10.57;;;6.47;;
75050;SDS011;63628;47.656;11.310;2023-02-15T08:17:20;8.97;;;6.10;;
75050;SDS011;63628;47.656;11.310;2023-02-15T08:19:47;17.43;;;12.17;;
75050;SDS011;63628;47.656;11.310;2023-02-15T08:22:14;39.23;;;26.27;;
75050;SDS011;63628;47.656;11.310;2023-02-15T08:24:40;14.07;;;9.77;;
75050;SDS011;63628;47.656;11.310;2023-02-15T08:27:08;14.37;;;9.50;;
75050;SDS011;63628;47.656;11.310;2023-02-15T08:29:37;23.83;;;15.32;;
75050;SDS011;63628;47.656;11.310;2023-02-15T08:32:07;20.03;;;13.90;;
75050;SDS011;63628;47.656;11.310;2023-02-15T08:34:36;14.27;;;10.70;;
75050;SDS011;63628;47.656;11.310;2023-02-15T08:39:32;15.70;;;10.87;;
75050;SDS011;63628;47.656;11.310;2023-02-15T08:41:59;10.83;;;8.33;;
75050;SDS011;63628;47.656;11.310;2023-02-15T08:44:25;13.37;;;9.60;;
75050;SDS011;63628;47.656;11.310;2023-02-15T08:46:52;12.80;;;8.83;;
75050;SDS011;63628;47.656;11.310;2023-02-15T08:49:20;32.87;;;15.20;;
75050;SDS011;63628;47.656;11.310;2023-02-15T08:51:48;10.13;;;6.57;;
75050;SDS011;63628;47.656;11.310;2023-02-15T08:54:18;12.23;;;7.90;;
75050;SDS011;63628;47.656;11.310;2023-02-15T08:56:46;13.57;;;9.27;;
75050;SDS011;63628;47.656;11.310;2023-02-15T08:59:13;16.83;;;10.27;;
75050;SDS011;63628;47.656;11.310;2023-02-15T09:01:42;29.90;;;14.35;;
75050;SDS011;63628;47.656;11.310;2023-02-15T09:04:09;12.57;;;8.40;;
75050;SDS011;63628;47.656;11.310;2023-02-15T09:06:38;12.47;;;9.60;;
75050;SDS011;63628;47.656;11.310;2023-02-15T09:09:05;9.48;;;7.65;;
75050;SDS011;63628;47.656;11.310;2023-02-15T09:11:34;11.50;;;7.87;;
75050;SDS011;63628;47.656;11.310;2023-02-15T09:14:02;13.07;;;7.33;;
75050;SDS011;63628;47.656;11.310;2023-02-15T09:16:31;11.50;;;8.05;;
75050;SDS011;63628;47.656;11.310;2023-02-15T09:18:59;9.90;;;6.73;;
75050;SDS011;63628;47.656;11.310;2023-02-15T09:21:33;23.43;;;11.00;;
75050;SDS011;63628;47.656;11.310;2023-02-15T09:24:04;25.27;;;10.67;;
75050;SDS011;63628;47.656;11.310;2023-02-15T09:26:34;23.07;;;11.53;;
75050;SDS011;63628;47.656;11.310;2023-02-15T09:29:02;14.45;;;8.85;;
75050;SDS011;63628;47.656;11.310;2023-02-15T09:31:30;13.77;;;9.10;;
75050;SDS011;63628;47.656;11.310;2023-02-15T09:33:58;15.60;;;10.20;;
75050;SDS011;63628;47.656;11.310;2023-02-15T09:36:30;16.57;;;10.67;;
75050;SDS011;63628;47.656;11.310;2023-02-15T09:38:58;17.15;;;9.38;;
75050;SDS011;63628;47.656;11.310;2023-02-15T09:44:32;12.30;;;7.67;;
75050;SDS011;63628;47.656;11.310;2023-02-15T09:47:17;14.80;;;7.35;;
75050;SDS011;63628;47.656;11.310;2023-02-15T09:49:54;8.30;;;6.43;;
75050;SDS011;63628;47.656;11.310;2023-02-15T09:52:42;14.73;;;8.37;;
75050;SDS011;63628;47.656;11.310;2023-02-15T09:55:29;11.17;;;6.87;;
75050;SDS011;63628;47.656;11.310;2023-02-15T09:58:11;8.30;;;6.40;;
75050;SDS011;63628;47.656;11.310;2023-02-15T10:00:46;43.47;;;18.67;;
75050;SDS011;63628;47.656;11.310;2023-02-15T10:03:26;25.17;;;11.70;;
75050;SDS011;63628;47.656;11.310;2023-02-15T10:06:23;16.57;;;8.33;;
75050;SDS011;63628;47.656;11.310;2023-02-15T10:12:01;15.63;;;8.00;;
75050;SDS011;63628;47.656;11.310;2023-02-15T10:14:59;12.70;;;7.83;;
75050;SDS011;63628;47.656;11.310;2023-02-15T10:17:43;10.37;;;5.47;;
75050;SDS011;63628;47.656;11.310;2023-02-15T10:20:22;9.15;;;5.55;;
75050;SDS011;63628;47.656;11.310;2023-02-15T10:23:03;9.63;;;6.13;;
75050;SDS011;63628;47.656;11.310;2023-02-15T10:25:41;10.40;;;7.17;;
75050;SDS011;63628;47.656;11.310;2023-02-15T10:28:16;9.43;;;6.63;;
75050;SDS011;63628;47.656;11.310;2023-02-15T10:30:48;12.93;;;7.77;;
75050;SDS011;63628;47.656;11.310;2023-02-15T10:33:21;9.03;;;6.07;;
75050;SDS011;63628;47.656;11.310;2023-02-15T10:36:01;18.47;;;9.27;;
75050;SDS011;63628;47.656;11.310;2023-02-15T10:38:38;9.50;;;6.07;;
75050;SDS011;63628;47.656;11.310;2023-02-15T10:41:15;13.30;;;7.17;;
75050;SDS011;63628;47.656;11.310;2023-02-15T10:43:56;8.63;;;5.40;;
75050;SDS011;63628;47.656;11.310;2023-02-15T10:49:34;5.07;;;4.20;;
75050;SDS011;63628;47.656;11.310;2023-02-15T10:52:16;6.73;;;4.80;;
75050;SDS011;63628;47.656;11.310;2023-02-15T10:54:54;10.50;;;5.50;;
75050;SDS011;63628;47.656;11.310;2023-02-15T10:57:32;12.23;;;7.83;;
75050;SDS011;63628;47.656;11.310;2023-02-15T11:00:07;9.03;;;6.13;;
75050;SDS011;63628;47.656;11.310;2023-02-15T11:02:49;8.33;;;6.00;;
75050;SDS011;63628;47.656;11.310;2023-02-15T11:05:34;9.57;;;4.73;;
75050;SDS011;63628;47.656;11.310;2023-02-15T11:08:08;7.80;;;5.43;;
75050;SDS011;63628;47.656;11.310;2023-02-15T11:10:37;5.13;;;4.30;;
75050;SDS011;63628;47.656;11.310;2023-02-15T11:13:08;6.70;;;5.00;;
75050;SDS011;63628;47.656;11.310;2023-02-15T11:15:39;10.00;;;5.37;;
75050;SDS011;63628;47.656;11.310;2023-02-15T11:18:13;4.33;;;2.37;;
75050;SDS011;63628;47.656;11.310;2023-02-15T11:20:47;2.43;;;1.60;;
75050;SDS011;63628;47.656;11.310;2023-02-15T11:23:19;6.73;;;3.07;;
75050;SDS011;63628;47.656;11.310;2023-02-15T11:25:47;6.37;;;2.77;;
75050;SDS011;63628;47.656;11.310;2023-02-15T11:28:22;5.63;;;3.37;;
75050;SDS011;63628;47.656;11.310;2023-02-15T11:30:54;6.60;;;4.57;;
75050;SDS011;63628;47.656;11.310;2023-02-15T11:33:24;3.83;;;1.30;;
75050;SDS011;63628;47.656;11.310;2023-02-15T11:35:56;2.20;;;1.60;;
75050;SDS011;63628;47.656;11.310;2023-02-15T11:38:27;5.57;;;4.07;;
75050;SDS011;63628;47.656;11.310;2023-02-15T11:40:59;3.63;;;1.10;;
75050;SDS011;63628;47.656;11.310;2023-02-15T11:43:32;4.40;;;2.07;;
75050;SDS011;63628;47.656;11.310;2023-02-15T11:46:02;5.53;;;3.90;;
75050;SDS011;63628;47.656;11.310;2023-02-15T11:48:30;2.37;;;1.30;;
75050;SDS011;63628;47.656;11.310;2023-02-15T11:50:58;1.97;;;1.37;;
75050;SDS011;63628;47.656;11.310;2023-02-15T11:53:25;2.63;;;0.83;;
75050;SDS011;63628;47.656;11.310;2023-02-15T11:55:58;3.97;;;1.90;;
75050;SDS011;63628;47.656;11.310;2023-02-15T11:58:26;3.43;;;1.40;;
75050;SDS011;63628;47.656;11.310;2023-02-15T12:00:58;2.47;;;1.00;;
75050;SDS011;63628;47.656;11.310;2023-02-15T12:03:33;1.70;;;0.90;;
75050;SDS011;63628;47.656;11.310;2023-02-15T12:06:12;1.47;;;0.80;;
75050;SDS011;63628;47.656;11.310;2023-02-15T12:08:44;1.63;;;1.10;;
75050;SDS011;63628;47.656;11.310;2023-02-15T12:11:17;2.40;;;0.77;;
75050;SDS011;63628;47.656;11.310;2023-02-15T12:13:55;2.73;;;1.10;;
75050;SDS011;63628;47.656;11.310;2023-02-15T12:16:23;1.47;;;1.00;;
75050;SDS011;63628;47.656;11.310;2023-02-15T12:18:53;8.63;;;4.10;;
75050;SDS011;63628;47.656;11.310;2023-02-15T12:21:27;4.37;;;1.50;;
75050;SDS011;63628;47.656;11.310;2023-02-15T12:23:56;6.90;;;3.00;;
75050;SDS011;63628;47.656;11.310;2023-02-15T12:26:28;3.37;;;1.57;;
75050;SDS011;63628;47.656;11.310;2023-02-15T12:28:57;3.10;;;2.08;;
75050;SDS011;63628;47.656;11.310;2023-02-15T12:31:28;1.80;;;1.30;;
75050;SDS011;63628;47.656;11.310;2023-02-15T12:34:01;1.30;;;0.90;;
75050;SDS011;63628;47.656;11.310;2023-02-15T12:36:30;12.00;;;1.40;;
75050;SDS011;63628;47.656;11.310;2023-02-15T12:39:03;2.95;;;1.80;;
75050;SDS011;63628;47.656;11.310;2023-02-15T12:41:31;1.00;;;0.90;;
75050;SDS011;63628;47.656;11.310;2023-02-15T12:44:05;3.00;;;1.37;;
75050;SDS011;63628;47.656;11.310;2023-02-15T12:46:39;4.37;;;2.53;;
75050;SDS011;63628;47.656;11.310;2023-02-15T12:49:18;1.50;;;0.87;;
75050;SDS011;63628;47.656;11.310;2023-02-15T12:51:47;2.67;;;1.50;;
75050;SDS011;63628;47.656;11.310;2023-02-15T12:56:57;3.70;;;1.80;;
75050;SDS011;63628;47.656;11.310;2023-02-15T12:59:24;2.80;;;1.57;;
75050;SDS011;63628;47.656;11.310;2023-02-15T13:01:51;4.10;;;2.80;;
75050;SDS011;63628;47.656;11.310;2023-02-15T13:04:24;1.70;;;0.97;;
75050;SDS011;63628;47.656;11.310;2023-02-15T13:06:53;3.07;;;1.07;;
75050;SDS011;63628;47.656;11.310;2023-02-15T13:09:25;1.40;;;0.95;;
75050;SDS011;63628;47.656;11.310;2023-02-15T13:12:08;1.43;;;1.20;;
75050;SDS011;63628;47.656;11.310;2023-02-15T13:14:41;1.23;;;1.00;;
75050;SDS011;63628;47.656;11.310;2023-02-15T13:17:10;2.47;;;0.93;;
75050;SDS011;63628;47.656;11.310;2023-02-15T13:19:41;1.38;;;0.98;;
75050;SDS011;63628;47.656;11.310;2023-02-15T13:22:12;4.03;;;1.20;;
75050;SDS011;63628;47.656;11.310;2023-02-15T13:24:42;6.40;;;1.97;;
75050;SDS011;63628;47.656;11.310;2023-02-15T13:29:42;4.83;;;1.70;;
75050;SDS011;63628;47.656;11.310;2023-02-15T13:32:12;1.75;;;1.17;;
75050;SDS011;63628;47.656;11.310;2023-02-15T13:34:57;0.80;;;0.70;;
75050;SDS011;63628;47.656;11.310;2023-02-15T13:37:32;5.27;;;1.43;;
75050;SDS011;63628;47.656;11.310;2023-02-15T13:40:07;2.80;;;1.40;;
75050;SDS011;63628;47.656;11.310;2023-02-15T13:42:41;5.30;;;1.90;;
75050;SDS011;63628;47.656;11.310;2023-02-15T13:45:19;1.53;;;0.80;;
75050;SDS011;63628;47.656;11.310;2023-02-15T13:47:57;1.80;;;0.90;;
75050;SDS011;63628;47.656;11.310;2023-02-15T13:50:38;1.97;;;1.13;;
75050;SDS011;63628;47.656;11.310;2023-02-15T13:53:23;2.10;;;1.67;;
75050;SDS011;63628;47.656;11.310;2023-02-15T13:56:02;5.07;;;2.37;;
75050;SDS011;63628;47.656;11.310;2023-02-15T14:01:40;3.53;;;1.40;;
75050;SDS011;63628;47.656;11.310;2023-02-15T14:10:21;1.67;;;1.27;;
75050;SDS011;63628;47.656;11.310;2023-02-15T14:12:58;3.70;;;1.40;;
75050;SDS011;63628;47.656;11.310;2023-02-15T14:15:38;2.93;;;1.10;;
75050;SDS011;63628;47.656;11.310;2023-02-15T14:18:15;4.73;;;0.80;;
75050;SDS011;63628;47.656;11.310;2023-02-15T14:20:54;1.70;;;0.93;;
75050;SDS011;63628;47.656;11.310;2023-02-15T14:23:32;1.60;;;1.10;;
75050;SDS011;63628;47.656;11.310;2023-02-15T14:26:10;3.53;;;1.00;;
75050;SDS011;63628;47.656;11.310;2023-02-15T14:28:45;1.53;;;1.00;;
75050;SDS011;63628;47.656;11.310;2023-02-15T14:31:23;1.87;;;0.93;;
75050;SDS011;63628;47.656;11.310;2023-02-15T14:33:57;1.70;;;1.40;;
75050;SDS011;63628;47.656;11.310;2023-02-15T14:36:24;1.67;;;1.20;;
75050;SDS011;63628;47.656;11.310;2023-02-15T14:38:58;0.80;;;0.50;;
75050;SDS011;63628;47.656;11.310;2023-02-15T14:41:35;1.47;;;0.70;;
75050;SDS011;63628;47.656;11.310;2023-02-15T14:44:08;2.10;;;1.20;;
75050;SDS011;63628;47.656;11.310;2023-02-15T14:46:42;2.50;;;1.97;;
75050;SDS011;63628;47.656;11.310;2023-02-15T14:49:16;2.23;;;1.57;;
75050;SDS011;63628;47.656;11.310;2023-02-15T14:52:00;1.43;;;1.33;;
75050;SDS011;63628;47.656;11.310;2023-02-15T14:57:22;3.83;;;1.50;;
75050;SDS011;63628;47.656;11.310;2023-02-15T15:02:40;2.97;;;1.60;;
75050;SDS011;63628;47.656;11.310;2023-02-15T15:05:16;2.47;;;1.80;;
75050;SDS011;63628;47.656;11.310;2023-02-15T15:07:45;5.77;;;1.67;;
75050;SDS011;63628;47.656;11.310;2023-02-15T15:18:51;3.57;;;1.67;;
75050;SDS011;63628;47.656;11.310;2023-02-15T15:27:40;2.60;;;1.37;;
75050;SDS011;63628;47.656;11.310;2023-02-15T15:36:47;2.10;;;1.40;;
75050;SDS011;63628;47.656;11.310;2023-02-15T15:42:36;3.50;;;1.50;;
75050;SDS011;63628;47.656;11.310;2023-02-15T15:45:33;1.17;;;0.97;;
75050;SDS011;63628;47.656;11.310;2023-02-15T15:51:00;1.80;;;1.20;;
75050;SDS011;63628;47.656;11.310;2023-02-15T15:53:31;2.40;;;1.70;;
75050;SDS011;63628;47.656;11.310;2023-02-15T15:56:04;1.40;;;1.10;;
75050;SDS011;63628;47.656;11.310;2023-02-15T15:58:34;4.30;;;1.40;;